Terminal Aerodrome Forecast
Issued by NWS

Home | Current Version | Previous Version | Text Only | Print | Product List | Glossary On
Versions: 1 2 3 4 5 6 7 8 9 10 11 12 13 14 15 16 17 18 19 20 21 22 23 24 25 26 27 28 29 30 31
000
FTUS46 KPDT 291700
TAFYKM
TAF
KYKM 291735Z 2918/3018 VRB03KT 3SM BR OVC008
     FM291900 06003KT 5SM BR SCT004 OVC010
     FM292100 14003KT 6SM BR SCT008 BKN015
     FM300600 29003KT 3SM BR SCT005 OVC008
     FM301400 27003KT 2SM BR OVC005=

USA.gov is the U.S. government's official web portal to all federal, state and local government web resources and services.